createdAt,value
2023-01-05T00:01:06.950Z,1.38
2023-01-05T00:03:35.520Z,1.25
2023-01-05T00:06:04.866Z,2.53
2023-01-05T00:08:37.140Z,4.93
2023-01-05T00:11:25.071Z,1.85
2023-01-05T00:14:11.110Z,3.63
2023-01-05T00:16:57.371Z,1.50
2023-01-05T00:19:43.461Z,2.63
2023-01-05T00:22:31.102Z,2.55
2023-01-05T00:25:11.224Z,2.75
2023-01-05T00:27:41.045Z,1.67
2023-01-05T00:30:10.716Z,2.30
2023-01-05T00:32:38.294Z,0.90
2023-01-05T00:35:05.869Z,2.05
2023-01-05T00:37:35.565Z,3.50
2023-01-05T00:40:02.850Z,1.15
2023-01-05T00:42:30.256Z,3.22
2023-01-05T00:44:57.500Z,1.77
2023-01-05T00:47:25.076Z,1.73
2023-01-05T00:49:52.452Z,3.22
2023-01-05T00:52:19.836Z,2.00
2023-01-05T00:54:47.187Z,6.47
2023-01-05T00:57:14.931Z,1.75
2023-01-05T00:59:42.920Z,2.72
2023-01-05T01:02:10.375Z,3.30
2023-01-05T01:04:38.748Z,3.13
2023-01-05T01:07:06.495Z,2.80
2023-01-05T01:09:34.328Z,3.65
2023-01-05T01:12:01.847Z,2.20
2023-01-05T01:14:29.339Z,3.08
2023-01-05T01:16:56.970Z,3.10
2023-01-05T01:19:26.056Z,3.45
2023-01-05T01:21:54.483Z,3.70
2023-01-05T01:24:41.784Z,3.95
2023-01-05T01:27:09.173Z,4.43
2023-01-05T01:29:36.471Z,3.22
2023-01-05T01:32:04.153Z,6.03
2023-01-05T01:34:31.537Z,4.32
2023-01-05T01:37:00.268Z,3.83
2023-01-05T01:39:33.374Z,6.32
2023-01-05T01:42:06.402Z,8.43
2023-01-05T01:44:53.345Z,4.18
2023-01-05T01:47:28.930Z,3.90
2023-01-05T01:49:58.404Z,4.30
2023-01-05T01:52:27.041Z,4.37
2023-01-05T01:54:54.751Z,5.40
2023-01-05T01:57:22.187Z,8.75
2023-01-05T01:59:49.912Z,3.80
2023-01-05T02:02:17.911Z,6.22
2023-01-05T02:04:45.961Z,7.88
2023-01-05T02:07:15.651Z,4.10
2023-01-05T02:09:43.854Z,6.78
2023-01-05T02:12:29.802Z,4.43
2023-01-05T02:15:10.998Z,7.88
2023-01-05T02:18:03.091Z,4.78
2023-01-05T02:20:59.951Z,4.85
2023-01-05T02:23:46.943Z,5.57
2023-01-05T02:26:33.612Z,5.55
2023-01-05T02:29:11.177Z,7.57
2023-01-05T02:32:25.903Z,6.13
2023-01-05T02:35:06.739Z,9.88
2023-01-05T02:37:46.304Z,7.53
2023-01-05T02:40:20.087Z,8.20
2023-01-05T02:42:49.432Z,11.85
2023-01-05T02:45:18.343Z,8.05
2023-01-05T02:47:46.076Z,8.18
2023-01-05T02:50:22.232Z,12.40
2023-01-05T02:53:13.963Z,14.32
2023-01-05T02:56:06.878Z,13.13
2023-01-05T02:58:47.573Z,15.07
2023-01-05T03:01:20.665Z,13.32
2023-01-05T03:03:56.180Z,9.00
2023-01-05T03:06:47.276Z,16.70
2023-01-05T03:09:20.027Z,14.50
2023-01-05T03:12:13.200Z,20.38
2023-01-05T03:14:57.702Z,17.60
2023-01-05T03:17:30.335Z,13.07
2023-01-05T03:19:58.922Z,18.80
2023-01-05T03:22:49.961Z,16.48
2023-01-05T03:25:39.342Z,14.32
2023-01-05T03:28:40.042Z,17.67
2023-01-05T03:31:54.643Z,16.42
2023-01-05T03:35:05.635Z,14.07
2023-01-05T03:37:45.576Z,15.13
2023-01-05T03:40:18.447Z,13.00
2023-01-05T03:42:46.857Z,16.52
2023-01-05T03:45:15.655Z,19.33
2023-01-05T03:47:43.318Z,12.10
2023-01-05T03:50:10.895Z,13.23
2023-01-05T03:52:38.250Z,10.38
2023-01-05T03:55:05.908Z,12.10
2023-01-05T03:57:33.904Z,10.80
2023-01-05T04:00:01.279Z,10.40
2023-01-05T04:02:29.887Z,14.40
2023-01-05T04:04:57.572Z,16.38
2023-01-05T04:07:25.935Z,10.93
2023-01-05T04:09:53.913Z,8.07
2023-01-05T04:12:21.864Z,12.88
2023-01-05T04:14:51.140Z,9.23
2023-01-05T04:17:18.585Z,14.32
2023-01-05T04:19:46.055Z,10.93
2023-01-05T04:22:14.156Z,14.15
2023-01-05T04:24:43.467Z,11.20
2023-01-05T04:27:10.867Z,11.70
2023-01-05T04:29:39.625Z,10.82
2023-01-05T04:32:07.071Z,11.70
2023-01-05T04:34:34.511Z,10.05
2023-01-05T04:37:01.980Z,13.48
2023-01-05T04:39:31.382Z,9.97
2023-01-05T04:41:58.890Z,10.35
2023-01-05T04:44:26.414Z,15.50
2023-01-05T04:46:55.810Z,13.15
2023-01-05T04:49:23.578Z,10.05
2023-01-05T04:51:52.393Z,11.48
2023-01-05T04:56:49.526Z,11.35
2023-01-05T04:59:17.009Z,10.35
2023-01-05T05:01:44.936Z,10.43
2023-01-05T05:04:13.843Z,8.85
2023-01-05T05:06:41.423Z,8.25
2023-01-05T05:09:08.865Z,5.93
2023-01-05T05:11:38.255Z,10.27
2023-01-05T05:14:05.536Z,7.63
2023-01-05T05:16:32.851Z,6.70
2023-01-05T05:19:01.308Z,5.68
2023-01-05T05:21:28.931Z,6.72
2023-01-05T05:23:56.544Z,9.63
2023-01-05T05:26:23.802Z,7.55
2023-01-05T05:28:52.031Z,5.57
2023-01-05T05:31:19.503Z,7.57
2023-01-05T05:33:47.008Z,7.40
2023-01-05T05:36:15.284Z,6.00
2023-01-05T05:38:42.500Z,3.85
2023-01-05T05:41:09.874Z,9.15
2023-01-05T05:43:37.135Z,6.03
2023-01-05T05:46:04.637Z,6.13
2023-01-05T05:48:32.140Z,4.43
2023-01-05T05:50:59.620Z,5.85
2023-01-05T05:53:26.957Z,5.00
2023-01-05T05:55:54.208Z,4.93
2023-01-05T05:58:21.531Z,5.55
2023-01-05T06:00:48.824Z,5.28
2023-01-05T06:03:16.270Z,8.30
2023-01-05T06:05:44.586Z,4.50
2023-01-05T06:08:11.945Z,8.38
2023-01-05T06:10:39.309Z,8.05
2023-01-05T06:13:06.604Z,7.07
2023-01-05T06:15:33.861Z,6.53
2023-01-05T06:18:01.125Z,8.73
2023-01-05T06:20:28.413Z,5.22
2023-01-05T06:22:55.732Z,5.65
2023-01-05T06:25:23.138Z,8.02
2023-01-05T06:27:50.420Z,4.82
2023-01-05T06:30:17.777Z,5.10
2023-01-05T06:32:45.241Z,5.88
2023-01-05T06:35:12.487Z,5.38
2023-01-05T06:37:39.778Z,6.25
2023-01-05T06:40:08.856Z,4.20
2023-01-05T06:42:36.195Z,5.35
2023-01-05T06:45:04.790Z,3.78
2023-01-05T06:47:32.213Z,4.75
2023-01-05T06:49:59.736Z,5.43
2023-01-05T06:52:27.025Z,6.15
2023-01-05T06:54:54.346Z,6.28
2023-01-05T06:57:21.642Z,6.22
2023-01-05T06:59:49.025Z,6.30
2023-01-05T07:02:17.141Z,4.20
2023-01-05T07:04:44.527Z,6.90
2023-01-05T07:07:15.692Z,4.63
2023-01-05T07:09:43.046Z,4.47
2023-01-05T07:12:10.540Z,5.82
2023-01-05T07:14:38.327Z,5.57
2023-01-05T07:17:05.741Z,5.18
2023-01-05T07:19:33.018Z,5.10
2023-01-05T07:22:00.341Z,5.18
2023-01-05T07:24:27.636Z,5.90
2023-01-05T07:26:54.921Z,10.43
2023-01-05T07:29:22.204Z,7.38
2023-01-05T07:31:52.438Z,8.55
2023-01-05T07:34:21.345Z,4.93
2023-01-05T07:36:49.643Z,4.50
2023-01-05T07:39:17.169Z,4.15
2023-01-05T07:41:44.626Z,7.55
2023-01-05T07:44:12.054Z,9.95
2023-01-05T07:46:39.333Z,6.80
2023-01-05T07:49:06.969Z,6.45
2023-01-05T07:51:34.336Z,8.55
2023-01-05T07:54:01.579Z,6.97
2023-01-05T07:56:28.823Z,6.00
2023-01-05T07:58:56.326Z,4.22
2023-01-05T08:01:24.043Z,6.05
2023-01-05T08:03:51.666Z,7.43
2023-01-05T08:06:19.892Z,5.25
2023-01-05T08:08:47.981Z,6.25
2023-01-05T08:11:17.101Z,5.15
2023-01-05T08:14:00.010Z,3.90
2023-01-05T08:16:31.490Z,9.80
2023-01-05T08:18:59.731Z,8.65
2023-01-05T08:21:27.063Z,9.18
2023-01-05T08:23:54.629Z,6.65
2023-01-05T08:26:23.562Z,4.57
2023-01-05T08:28:52.478Z,6.88
2023-01-05T08:31:29.929Z,4.95
2023-01-05T08:34:00.086Z,7.28
2023-01-05T08:36:28.108Z,4.55
2023-01-05T08:38:55.670Z,10.82
2023-01-05T08:41:22.896Z,4.93
2023-01-05T08:43:51.993Z,8.55
2023-01-05T08:46:20.896Z,5.85
2023-01-05T08:48:52.625Z,5.57
2023-01-05T08:51:20.238Z,5.65
2023-01-05T08:53:47.753Z,7.63
2023-01-05T08:56:15.393Z,6.90
2023-01-05T08:58:42.944Z,6.72
2023-01-05T09:01:12.615Z,10.18
2023-01-05T09:03:40.578Z,3.50
2023-01-05T09:06:09.587Z,3.13
2023-01-05T09:08:36.826Z,3.13
2023-01-05T09:11:11.908Z,3.63
2023-01-05T09:13:40.039Z,6.90
2023-01-05T09:16:13.680Z,5.22
2023-01-05T09:18:41.719Z,3.85
2023-01-05T09:21:09.721Z,3.38
2023-01-05T09:23:37.865Z,3.20
2023-01-05T09:26:06.674Z,6.63
2023-01-05T09:28:36.452Z,9.80
2023-01-05T09:31:11.861Z,7.57
2023-01-05T09:33:40.375Z,3.80
2023-01-05T09:36:08.300Z,8.25
2023-01-05T09:38:36.353Z,2.03
2023-01-05T09:41:21.188Z,4.22
2023-01-05T09:43:51.621Z,11.15
2023-01-05T09:46:22.549Z,3.85
2023-01-05T09:48:55.485Z,4.53
2023-01-05T09:51:23.208Z,4.95
2023-01-05T09:53:50.625Z,4.20
2023-01-05T09:59:26.937Z,6.75
2023-01-05T10:01:56.621Z,3.95
2023-01-05T10:04:30.613Z,4.75
2023-01-05T10:07:07.229Z,5.63
2023-01-05T10:09:39.326Z,4.85
2023-01-05T10:12:28.486Z,2.35
2023-01-05T10:15:16.980Z,6.70
2023-01-05T10:17:44.851Z,3.50
2023-01-05T10:20:17.257Z,4.07
2023-01-05T10:22:44.558Z,5.28
2023-01-05T10:25:29.916Z,7.93
2023-01-05T10:28:23.314Z,7.70
2023-01-05T10:31:01.859Z,3.88
2023-01-05T10:33:40.571Z,5.45
2023-01-05T10:37:06.783Z,5.60
2023-01-05T10:39:34.041Z,7.40
2023-01-05T10:42:24.748Z,9.05
2023-01-05T10:44:55.974Z,9.00
2023-01-05T10:47:25.428Z,3.83
2023-01-05T10:49:53.365Z,2.97
2023-01-05T10:52:22.513Z,4.32
2023-01-05T10:54:54.257Z,2.35
2023-01-05T10:57:36.597Z,5.63
2023-01-05T11:00:19.878Z,8.98
2023-01-05T11:02:50.218Z,1.80
2023-01-05T11:05:27.516Z,4.25
2023-01-05T11:08:00.163Z,4.32
2023-01-05T11:10:36.756Z,4.05
2023-01-05T11:13:18.898Z,5.63
2023-01-05T11:15:55.461Z,4.20
2023-01-05T11:18:25.427Z,2.45
2023-01-05T11:21:11.354Z,3.53
2023-01-05T11:23:42.105Z,4.55
2023-01-05T11:26:36.323Z,10.05
2023-01-05T11:29:09.354Z,15.27
2023-01-05T11:31:46.530Z,13.15
2023-01-05T11:34:19.754Z,12.07
2023-01-05T11:37:07.668Z,9.25
2023-01-05T11:39:51.718Z,17.95
2023-01-05T11:42:25.769Z,20.88
2023-01-05T11:44:58.625Z,86.07
2023-01-05T11:47:27.456Z,66.43
2023-01-05T11:49:59.082Z,39.85
2023-01-05T11:52:34.848Z,30.38
2023-01-05T11:55:20.327Z,11.57
2023-01-05T11:57:50.590Z,9.70
2023-01-05T12:00:25.075Z,8.40
2023-01-05T12:03:10.965Z,10.55
2023-01-05T12:05:38.239Z,10.18
2023-01-05T12:08:10.686Z,10.10
2023-01-05T12:11:07.143Z,8.02
2023-01-05T12:13:54.102Z,4.68
2023-01-05T12:16:46.981Z,4.05
2023-01-05T12:19:23.155Z,4.63
2023-01-05T12:22:09.441Z,5.55
2023-01-05T12:25:05.648Z,4.18
2023-01-05T12:27:56.250Z,5.15
2023-01-05T12:34:13.025Z,4.03
2023-01-05T12:37:07.341Z,7.85
2023-01-05T12:39:46.499Z,4.72
2023-01-05T12:42:35.864Z,6.82
2023-01-05T12:45:32.480Z,6.13
2023-01-05T12:48:16.274Z,3.85
2023-01-05T12:51:03.012Z,2.85
2023-01-05T12:53:36.560Z,7.45
2023-01-05T12:56:15.119Z,4.45
2023-01-05T12:58:53.828Z,3.38
2023-01-05T13:01:25.851Z,5.75
2023-01-05T13:04:01.072Z,9.82
2023-01-05T13:06:34.109Z,15.93
2023-01-05T13:09:13.899Z,14.30
2023-01-05T13:11:50.847Z,4.35
2023-01-05T13:14:20.562Z,6.45
2023-01-05T13:16:58.523Z,3.45
2023-01-05T13:19:42.441Z,4.97
2023-01-05T13:22:26.090Z,4.70
2023-01-05T13:25:18.072Z,5.18
2023-01-05T13:27:45.514Z,4.22
2023-01-05T13:30:22.920Z,5.68
2023-01-05T13:32:56.493Z,3.35
2023-01-05T13:35:42.706Z,4.30
2023-01-05T13:38:47.333Z,10.93
2023-01-05T13:41:33.656Z,5.82
2023-01-05T13:44:50.768Z,3.88
2023-01-05T13:47:46.002Z,6.10
2023-01-05T13:50:22.061Z,2.97
2023-01-05T13:53:19.085Z,4.97
2023-01-05T13:55:51.138Z,4.10
2023-01-05T14:01:11.454Z,12.10
2023-01-05T14:03:41.277Z,12.85
2023-01-05T14:06:25.403Z,8.40
2023-01-05T14:08:54.897Z,3.92
2023-01-05T14:11:24.116Z,4.72
2023-01-05T14:13:59.628Z,4.47
2023-01-05T14:16:36.569Z,2.72
2023-01-05T14:19:32.686Z,3.33
2023-01-05T14:22:05.533Z,5.10
2023-01-05T14:24:32.752Z,2.47
2023-01-05T14:27:20.349Z,4.13
2023-01-05T14:29:53.716Z,8.23
2023-01-05T14:32:53.098Z,5.57
2023-01-05T14:38:07.220Z,5.65
2023-01-05T14:40:44.325Z,4.32
2023-01-05T14:43:32.560Z,2.25
2023-01-05T14:46:05.295Z,6.07
2023-01-05T14:48:45.949Z,4.30
2023-01-05T14:51:26.382Z,8.32
2023-01-05T14:53:56.030Z,5.10
2023-01-05T14:56:28.729Z,5.78
2023-01-05T14:59:06.235Z,4.68
2023-01-05T15:01:52.941Z,5.72
2023-01-05T15:04:27.032Z,8.10
2023-01-05T15:06:57.229Z,7.03
2023-01-05T15:12:33.229Z,6.57
2023-01-05T15:15:03.551Z,7.40
2023-01-05T15:20:27.546Z,7.30
2023-01-05T15:23:30.470Z,5.70
2023-01-05T15:26:02.779Z,4.05
2023-01-05T15:28:56.922Z,5.72
2023-01-05T15:31:35.037Z,5.72
2023-01-05T15:34:07.075Z,8.77
2023-01-05T15:36:43.612Z,5.20
2023-01-05T15:39:32.308Z,7.18
2023-01-05T15:42:02.149Z,8.13
2023-01-05T15:44:34.631Z,9.77
2023-01-05T15:47:02.563Z,6.40
2023-01-05T15:49:31.937Z,7.63
2023-01-05T15:51:59.678Z,5.80
2023-01-05T15:54:29.947Z,6.93
2023-01-05T15:59:34.928Z,6.22
2023-01-05T16:02:02.593Z,7.38
2023-01-05T16:04:29.912Z,7.68
2023-01-05T16:07:02.114Z,6.47
2023-01-05T16:09:34.895Z,3.83
2023-01-05T16:12:08.073Z,6.57
2023-01-05T16:14:45.024Z,3.28
2023-01-05T16:17:22.226Z,2.97
2023-01-05T16:19:51.275Z,6.32
2023-01-05T16:22:26.655Z,5.38
2023-01-05T16:25:03.965Z,7.40
2023-01-05T16:27:34.842Z,3.25
2023-01-05T16:30:34.670Z,4.63
2023-01-05T16:33:11.716Z,4.90
2023-01-05T16:35:44.464Z,4.97
2023-01-05T16:38:11.808Z,5.43
2023-01-05T16:40:46.452Z,7.78
2023-01-05T16:43:38.376Z,11.13
2023-01-05T16:46:20.180Z,7.18
2023-01-05T16:48:52.006Z,5.55
2023-01-05T16:51:31.427Z,5.07
2023-01-05T16:54:36.859Z,6.60
2023-01-05T16:57:29.059Z,5.35
2023-01-05T16:59:56.513Z,6.80
2023-01-05T17:02:44.710Z,7.97
2023-01-05T17:05:18.233Z,8.48
2023-01-05T17:07:47.023Z,4.68
2023-01-05T17:10:18.126Z,10.82
2023-01-05T17:12:53.028Z,8.55
2023-01-05T17:15:23.864Z,5.45
2023-01-05T17:17:54.393Z,6.88
2023-01-05T17:20:23.045Z,7.70
2023-01-05T17:22:50.678Z,7.15
2023-01-05T17:25:18.293Z,7.15
2023-01-05T17:27:46.352Z,4.10
2023-01-05T17:30:19.695Z,11.35
2023-01-05T17:32:47.238Z,7.30
2023-01-05T17:35:16.120Z,7.00
2023-01-05T17:37:46.030Z,7.55
2023-01-05T17:40:17.898Z,5.68
2023-01-05T17:42:45.922Z,7.20
2023-01-05T17:45:26.167Z,7.40
2023-01-05T17:47:54.060Z,7.57
2023-01-05T17:50:27.966Z,9.95
2023-01-05T17:52:55.671Z,7.50
2023-01-05T17:55:23.496Z,4.47
2023-01-05T17:57:51.089Z,7.03
2023-01-05T18:00:22.203Z,9.68
2023-01-05T18:02:50.679Z,7.07
2023-01-05T18:05:18.408Z,5.32
2023-01-05T18:07:45.837Z,5.47
2023-01-05T18:10:17.332Z,10.02
2023-01-05T18:12:44.756Z,5.82
2023-01-05T18:15:12.588Z,10.20
2023-01-05T18:17:40.187Z,5.10
2023-01-05T18:20:08.157Z,6.38
2023-01-05T18:22:37.467Z,12.38
2023-01-05T18:27:35.583Z,12.38
2023-01-05T18:30:04.696Z,7.50
2023-01-05T18:32:32.353Z,11.27
2023-01-05T18:34:59.660Z,10.43
2023-01-05T18:39:59.425Z,8.88
2023-01-05T18:42:26.752Z,7.53
2023-01-05T18:44:54.183Z,9.82
2023-01-05T18:47:21.484Z,10.32
2023-01-05T18:49:49.468Z,13.55
2023-01-05T18:52:16.831Z,18.50
2023-01-05T18:54:45.274Z,13.65
2023-01-05T18:57:12.559Z,9.15
2023-01-05T18:59:40.037Z,9.73
2023-01-05T19:02:13.169Z,11.73
2023-01-05T19:04:40.436Z,12.15
2023-01-05T19:07:08.379Z,9.88
2023-01-05T19:09:35.827Z,11.52
2023-01-05T19:12:03.104Z,11.30
2023-01-05T19:14:30.816Z,15.98
2023-01-05T19:16:58.233Z,13.80
2023-01-05T19:19:25.678Z,12.25
2023-01-05T19:21:54.006Z,9.63
2023-01-05T19:24:23.836Z,17.52
2023-01-05T19:26:51.497Z,36.75
2023-01-05T19:29:19.777Z,13.02
2023-01-05T19:31:49.040Z,8.27
2023-01-05T19:34:19.383Z,6.70
2023-01-05T19:36:47.290Z,6.97
2023-01-05T19:39:17.968Z,11.20
2023-01-05T19:41:47.628Z,9.95
2023-01-05T19:44:18.232Z,9.32
2023-01-05T19:46:46.141Z,10.77
2023-01-05T19:49:16.905Z,7.60
2023-01-05T19:51:45.453Z,9.98
2023-01-05T19:54:14.057Z,7.10
2023-01-05T19:56:42.225Z,9.82
2023-01-05T19:59:22.759Z,12.13
2023-01-05T20:01:50.387Z,11.70
2023-01-05T20:04:17.893Z,15.13
2023-01-05T20:06:46.161Z,11.77
2023-01-05T20:09:16.397Z,12.65
2023-01-05T20:14:24.461Z,13.73
2023-01-05T20:16:54.161Z,12.70
2023-01-05T20:19:22.804Z,16.40
2023-01-05T20:21:51.193Z,14.45
2023-01-05T20:24:23.694Z,9.10
2023-01-05T20:26:53.522Z,13.57
2023-01-05T20:29:22.143Z,14.75
2023-01-05T20:31:55.851Z,21.10
2023-01-05T20:34:25.305Z,24.30
2023-01-05T20:36:54.024Z,10.63
2023-01-05T20:39:22.534Z,11.73
2023-01-05T20:41:51.807Z,28.65
2023-01-05T20:44:21.476Z,26.37
2023-01-05T20:46:50.457Z,13.65
2023-01-05T20:49:17.925Z,15.70
2023-01-05T20:51:45.884Z,14.32
2023-01-05T20:54:13.729Z,20.38
2023-01-05T20:56:43.648Z,14.13
2023-01-05T20:59:15.093Z,16.50
2023-01-05T21:01:42.572Z,16.23
2023-01-05T21:04:09.987Z,12.23
2023-01-05T21:06:37.445Z,23.00
2023-01-05T21:09:05.348Z,30.30
2023-01-05T21:11:32.756Z,33.47
2023-01-05T21:14:01.902Z,17.52
2023-01-05T21:16:32.458Z,19.73
2023-01-05T21:21:29.580Z,19.70
2023-01-05T21:23:57.022Z,20.55
2023-01-05T21:26:24.629Z,17.02
2023-01-05T21:28:53.484Z,18.40
2023-01-05T21:31:23.713Z,20.75
2023-01-05T21:33:51.570Z,14.70
2023-01-05T21:36:21.962Z,13.13
2023-01-05T21:39:00.744Z,11.13
2023-01-05T21:41:53.448Z,15.55
2023-01-05T21:46:48.782Z,18.08
2023-01-05T21:49:17.029Z,13.75
2023-01-05T21:52:03.134Z,12.75
2023-01-05T21:54:49.458Z,14.55
2023-01-05T21:57:16.853Z,11.60
2023-01-05T21:59:44.511Z,8.88
2023-01-05T22:02:13.306Z,7.57
2023-01-05T22:04:41.058Z,9.10
2023-01-05T22:07:08.403Z,6.00
2023-01-05T22:09:36.592Z,6.65
2023-01-05T22:12:08.503Z,7.38
2023-01-05T22:14:37.229Z,11.38
2023-01-05T22:17:06.294Z,9.07
2023-01-05T22:19:33.673Z,11.20
2023-01-05T22:22:02.307Z,14.25
2023-01-05T22:24:29.683Z,16.70
2023-01-05T22:26:57.023Z,6.97
2023-01-05T22:29:24.987Z,6.47
2023-01-05T22:31:52.673Z,13.65
2023-01-05T22:34:20.069Z,6.53
2023-01-05T22:36:47.359Z,7.93
2023-01-05T22:39:14.825Z,8.82
2023-01-05T22:41:42.229Z,5.45
2023-01-05T22:44:09.607Z,8.27
2023-01-05T22:46:36.858Z,4.82
2023-01-05T22:49:04.344Z,7.72
2023-01-05T22:51:34.247Z,7.38
2023-01-05T22:54:02.038Z,9.80
2023-01-05T22:56:31.893Z,8.43
2023-01-05T22:58:59.905Z,7.45
2023-01-05T23:01:30.681Z,11.55
2023-01-05T23:03:59.312Z,5.82
2023-01-05T23:06:27.141Z,7.82
2023-01-05T23:08:54.959Z,8.40
2023-01-05T23:11:30.439Z,7.70
2023-01-05T23:13:58.653Z,4.40
2023-01-05T23:16:26.549Z,8.50
2023-01-05T23:18:54.307Z,6.60
2023-01-05T23:21:23.831Z,8.23
2023-01-05T23:23:52.262Z,6.47
2023-01-05T23:26:20.478Z,6.65
2023-01-05T23:28:48.143Z,7.40
2023-01-05T23:31:16.495Z,4.28
2023-01-05T23:33:44.120Z,8.90
2023-01-05T23:36:13.033Z,8.85
2023-01-05T23:38:40.351Z,7.20
2023-01-05T23:41:08.883Z,4.68
2023-01-05T23:43:37.952Z,8.82
2023-01-05T23:46:16.404Z,5.60
2023-01-05T23:48:44.067Z,6.60
2023-01-05T23:51:16.634Z,3.88
2023-01-05T23:53:46.838Z,5.03
2023-01-05T23:58:47.118Z,5.03
